sensor_id;sensor_type;location;lat;lon;timestamp;pressure;altitude;pressure_sealevel;temperature;humidity
12197;BME280;6161;43.014;25.840;2022-09-09T00:01:09;99684.31;;;22.64;nan
12197;BME280;6161;43.014;25.840;2022-09-09T00:03:48;99731.63;;;22.64;nan
12197;BME280;6161;43.014;25.840;2022-09-09T00:06:31;99706.03;;;22.58;nan
12197;BME280;6161;43.014;25.840;2022-09-09T00:09:02;99725.53;;;22.62;nan
12197;BME280;6161;43.014;25.840;2022-09-09T00:11:43;99700.03;;;22.68;nan
12197;BME280;6161;43.014;25.840;2022-09-09T00:17:08;99701.50;;;22.71;nan
12197;BME280;6161;43.014;25.840;2022-09-09T00:22:18;99647.63;;;22.71;nan
12197;BME280;6161;43.014;25.840;2022-09-09T00:27:29;99686.09;;;22.76;nan
12197;BME280;6161;43.014;25.840;2022-09-09T00:30:14;99719.09;;;22.75;nan
12197;BME280;6161;43.014;25.840;2022-09-09T00:32:44;99706.56;;;22.67;nan
12197;BME280;6161;43.014;25.840;2022-09-09T00:37:35;99730.88;;;22.75;nan
12197;BME280;6161;43.014;25.840;2022-09-09T00:40:08;99700.59;;;22.77;nan
12197;BME280;6161;43.014;25.840;2022-09-09T00:42:43;99734.72;;;22.68;nan
12197;BME280;6161;43.014;25.840;2022-09-09T00:47:53;99691.56;;;22.76;nan
12197;BME280;6161;43.014;25.840;2022-09-09T00:56:15;99686.09;;;22.76;nan
12197;BME280;6161;43.014;25.840;2022-09-09T00:59:13;99724.66;;;22.68;nan
12197;BME280;6161;43.014;25.840;2022-09-09T01:01:45;99711.31;;;22.53;nan
12197;BME280;6161;43.014;25.840;2022-09-09T01:04:16;99683.13;;;22.53;nan
12197;BME280;6161;43.014;25.840;2022-09-09T01:06:49;99689.00;;;22.56;nan
12197;BME280;6161;43.014;25.840;2022-09-09T01:09:22;99709.63;;;22.52;nan
12197;BME280;6161;43.014;25.840;2022-09-09T01:11:52;99689.72;;;22.45;nan
12197;BME280;6161;43.014;25.840;2022-09-09T01:19:55;99665.00;;;22.33;nan
12197;BME280;6161;43.014;25.840;2022-09-09T01:27:59;99669.31;;;22.16;nan
12197;BME280;6161;43.014;25.840;2022-09-09T01:30:26;99721.25;;;22.09;nan
12197;BME280;6161;43.014;25.840;2022-09-09T01:32:57;99678.81;;;22.07;nan
12197;BME280;6161;43.014;25.840;2022-09-09T01:37:57;99691.88;;;22.05;nan
12197;BME280;6161;43.014;25.840;2022-09-09T01:40:23;99691.47;;;22.01;nan
12197;BME280;6161;43.014;25.840;2022-09-09T01:42:49;99649.47;;;21.96;nan
12197;BME280;6161;43.014;25.840;2022-09-09T01:45:14;99691.44;;;21.69;nan
12197;BME280;6161;43.014;25.840;2022-09-09T01:47:41;99716.41;;;21.73;nan
12197;BME280;6161;43.014;25.840;2022-09-09T01:50:08;99664.13;;;21.69;nan
12197;BME280;6161;43.014;25.840;2022-09-09T01:52:36;99691.63;;;21.75;nan
12197;BME280;6161;43.014;25.840;2022-09-09T01:55:03;99695.81;;;21.77;nan
12197;BME280;6161;43.014;25.840;2022-09-09T01:57:54;99717.22;;;21.73;nan
12197;BME280;6161;43.014;25.840;2022-09-09T02:05:38;99721.09;;;21.53;nan
12197;BME280;6161;43.014;25.840;2022-09-09T02:08:14;99677.66;;;21.51;nan
12197;BME280;6161;43.014;25.840;2022-09-09T02:13:17;99674.72;;;21.53;nan
12197;BME280;6161;43.014;25.840;2022-09-09T02:16:04;99686.47;;;21.46;nan
12197;BME280;6161;43.014;25.840;2022-09-09T02:18:38;99672.19;;;21.51;nan
12197;BME280;6161;43.014;25.840;2022-09-09T02:23:32;99669.66;;;21.56;nan
12197;BME280;6161;43.014;25.840;2022-09-09T02:26:00;99723.03;;;21.45;nan
12197;BME280;6161;43.014;25.840;2022-09-09T02:28:29;99655.66;;;21.33;nan
12197;BME280;6161;43.014;25.840;2022-09-09T02:33:26;99703.53;;;21.42;nan
12197;BME280;6161;43.014;25.840;2022-09-09T02:35:53;99667.84;;;21.37;nan
12197;BME280;6161;43.014;25.840;2022-09-09T02:38:25;99642.66;;;21.35;nan
12197;BME280;6161;43.014;25.840;2022-09-09T02:40:53;99623.31;;;21.36;nan
12197;BME280;6161;43.014;25.840;2022-09-09T02:43:20;99682.09;;;21.39;nan
12197;BME280;6161;43.014;25.840;2022-09-09T02:48:59;99689.00;;;21.41;nan
12197;BME280;6161;43.014;25.840;2022-09-09T02:51:35;99656.06;;;21.43;nan
12197;BME280;6161;43.014;25.840;2022-09-09T02:54:15;99690.69;;;21.36;nan
12197;BME280;6161;43.014;25.840;2022-09-09T02:56:48;99617.03;;;21.36;nan
12197;BME280;6161;43.014;25.840;2022-09-09T02:59:16;99657.75;;;21.30;nan
12197;BME280;6161;43.014;25.840;2022-09-09T03:01:41;99638.09;;;21.22;nan
12197;BME280;6161;43.014;25.840;2022-09-09T03:04:07;99634.13;;;21.11;nan
12197;BME280;6161;43.014;25.840;2022-09-09T03:06:32;99688.28;;;21.07;nan
12197;BME280;6161;43.014;25.840;2022-09-09T03:09:00;99633.31;;;21.04;nan
12197;BME280;6161;43.014;25.840;2022-09-09T03:11:27;99698.97;;;20.96;nan
12197;BME280;6161;43.014;25.840;2022-09-09T03:13:53;99692.88;;;21.07;nan
12197;BME280;6161;43.014;25.840;2022-09-09T03:16:19;99608.38;;;20.94;nan
12197;BME280;6161;43.014;25.840;2022-09-09T03:18:46;99662.91;;;21.00;nan
12197;BME280;6161;43.014;25.840;2022-09-09T03:23:37;99700.88;;;20.89;nan
12197;BME280;6161;43.014;25.840;2022-09-09T03:26:02;99692.31;;;20.85;nan
12197;BME280;6161;43.014;25.840;2022-09-09T03:28:28;99620.34;;;20.79;nan
12197;BME280;6161;43.014;25.840;2022-09-09T03:33:29;99604.63;;;20.81;nan
12197;BME280;6161;43.014;25.840;2022-09-09T03:35:55;99675.94;;;20.85;nan
12197;BME280;6161;43.014;25.840;2022-09-09T03:38:23;99652.88;;;20.81;nan
12197;BME280;6161;43.014;25.840;2022-09-09T03:43:14;99675.31;;;20.76;nan
12197;BME280;6161;43.014;25.840;2022-09-09T03:45:45;99624.81;;;20.67;nan
12197;BME280;6161;43.014;25.840;2022-09-09T03:48:18;99643.22;;;20.72;nan
12197;BME280;6161;43.014;25.840;2022-09-09T03:50:52;99621.03;;;20.68;nan
12197;BME280;6161;43.014;25.840;2022-09-09T03:53:19;99671.94;;;20.54;nan
12197;BME280;6161;43.014;25.840;2022-09-09T03:55:50;99696.09;;;20.57;nan
12197;BME280;6161;43.014;25.840;2022-09-09T03:58:19;99699.19;;;20.54;nan
12197;BME280;6161;43.014;25.840;2022-09-09T04:00:59;99682.63;;;20.49;nan
12197;BME280;6161;43.014;25.840;2022-09-09T04:05:51;99639.06;;;20.16;nan
12197;BME280;6161;43.014;25.840;2022-09-09T04:08:18;99706.97;;;20.37;nan
12197;BME280;6161;43.014;25.840;2022-09-09T04:10:48;99767.28;;;20.34;nan
12197;BME280;6161;43.014;25.840;2022-09-09T04:13:15;99636.13;;;20.31;nan
12197;BME280;6161;43.014;25.840;2022-09-09T04:15:43;99630.25;;;20.40;nan
12197;BME280;6161;43.014;25.840;2022-09-09T04:18:09;99653.91;;;20.47;nan
12197;BME280;6161;43.014;25.840;2022-09-09T04:20:34;99718.69;;;20.51;nan
12197;BME280;6161;43.014;25.840;2022-09-09T04:25:26;99653.72;;;20.61;nan
12197;BME280;6161;43.014;25.840;2022-09-09T04:30:20;99576.81;;;20.53;nan
12197;BME280;6161;43.014;25.840;2022-09-09T04:35:17;99626.91;;;20.38;nan
12197;BME280;6161;43.014;25.840;2022-09-09T04:37:43;99653.72;;;20.41;nan
12197;BME280;6161;43.014;25.840;2022-09-09T04:40:12;99623.13;;;20.39;nan
12197;BME280;6161;43.014;25.840;2022-09-09T04:47:30;99614.31;;;20.71;nan
12197;BME280;6161;43.014;25.840;2022-09-09T04:52:23;99667.97;;;20.90;nan
12197;BME280;6161;43.014;25.840;2022-09-09T04:59:39;99701.38;;;21.44;nan
12197;BME280;6161;43.014;25.840;2022-09-09T05:02:05;99696.28;;;21.67;nan
12197;BME280;6161;43.014;25.840;2022-09-09T05:04:31;99710.50;;;21.76;nan
12197;BME280;6161;43.014;25.840;2022-09-09T05:09:23;99718.28;;;22.11;nan
12197;BME280;6161;43.014;25.840;2022-09-09T05:11:49;99717.53;;;22.35;nan
12197;BME280;6161;43.014;25.840;2022-09-09T05:14:14;99736.97;;;22.52;nan
12197;BME280;6161;43.014;25.840;2022-09-09T05:16:40;99646.34;;;22.74;nan
12197;BME280;6161;43.014;25.840;2022-09-09T05:19:06;99731.91;;;23.06;nan
12197;BME280;6161;43.014;25.840;2022-09-09T05:21:33;99646.25;;;23.24;nan
12197;BME280;6161;43.014;25.840;2022-09-09T05:23:59;99664.56;;;23.42;nan
12197;BME280;6161;43.014;25.840;2022-09-09T05:26:26;99673.03;;;23.71;nan
12197;BME280;6161;43.014;25.840;2022-09-09T05:31:18;99636.63;;;24.12;nan
12197;BME280;6161;43.014;25.840;2022-09-09T05:33:44;99672.09;;;24.37;nan
12197;BME280;6161;43.014;25.840;2022-09-09T05:36:16;99717.06;;;24.48;nan
12197;BME280;6161;43.014;25.840;2022-09-09T05:38:45;99690.50;;;24.84;nan
12197;BME280;6161;43.014;25.840;2022-09-09T05:41:11;99706.88;;;25.02;nan
12197;BME280;6161;43.014;25.840;2022-09-09T05:48:44;99671.69;;;25.51;nan
12197;BME280;6161;43.014;25.840;2022-09-09T05:51:19;99705.03;;;25.84;nan
12197;BME280;6161;43.014;25.840;2022-09-09T05:58:41;99697.13;;;26.45;nan
12197;BME280;6161;43.014;25.840;2022-09-09T06:01:26;99662.13;;;26.74;nan
12197;BME280;6161;43.014;25.840;2022-09-09T06:03:56;99675.22;;;26.83;nan
12197;BME280;6161;43.014;25.840;2022-09-09T06:08:53;99667.94;;;27.33;nan
12197;BME280;6161;43.014;25.840;2022-09-09T06:11:33;99704.25;;;27.74;nan
12197;BME280;6161;43.014;25.840;2022-09-09T06:14:07;99679.44;;;27.96;nan
12197;BME280;6161;43.014;25.840;2022-09-09T06:16:33;99667.88;;;27.99;nan
12197;BME280;6161;43.014;25.840;2022-09-09T06:19:00;99705.50;;;28.38;nan
12197;BME280;6161;43.014;25.840;2022-09-09T06:21:35;99680.88;;;28.58;nan
12197;BME280;6161;43.014;25.840;2022-09-09T06:24:02;99699.25;;;28.80;nan
12197;BME280;6161;43.014;25.840;2022-09-09T06:26:36;99718.16;;;28.98;nan
12197;BME280;6161;43.014;25.840;2022-09-09T06:31:33;99704.81;;;29.22;nan
12197;BME280;6161;43.014;25.840;2022-09-09T06:33:59;99681.38;;;29.30;nan
12197;BME280;6161;43.014;25.840;2022-09-09T06:38:56;99639.16;;;29.45;nan
12197;BME280;6161;43.014;25.840;2022-09-09T06:41:23;99675.78;;;29.82;nan
12197;BME280;6161;43.014;25.840;2022-09-09T06:43:49;99687.69;;;29.98;nan
12197;BME280;6161;43.014;25.840;2022-09-09T06:46:17;99694.69;;;30.21;nan
12197;BME280;6161;43.014;25.840;2022-09-09T06:48:44;99702.69;;;30.23;nan
12197;BME280;6161;43.014;25.840;2022-09-09T06:51:13;99688.06;;;30.38;nan
12197;BME280;6161;43.014;25.840;2022-09-09T06:53:39;99701.34;;;30.41;nan
12197;BME280;6161;43.014;25.840;2022-09-09T06:58:40;99688.34;;;30.57;nan
12197;BME280;6161;43.014;25.840;2022-09-09T07:01:08;99667.31;;;30.76;nan
12197;BME280;6161;43.014;25.840;2022-09-09T07:03:35;99678.94;;;30.88;nan
12197;BME280;6161;43.014;25.840;2022-09-09T07:06:01;99658.69;;;30.78;nan
12197;BME280;6161;43.014;25.840;2022-09-09T07:08:27;99698.34;;;30.94;nan
12197;BME280;6161;43.014;25.840;2022-09-09T07:10:53;99681.16;;;30.86;nan
12197;BME280;6161;43.014;25.840;2022-09-09T07:13:26;99675.56;;;31.07;nan
12197;BME280;6161;43.014;25.840;2022-09-09T07:15:52;99672.78;;;31.17;nan
12197;BME280;6161;43.014;25.840;2022-09-09T07:18:19;99667.22;;;31.22;nan
12197;BME280;6161;43.014;25.840;2022-09-09T07:20:54;99684.94;;;31.31;nan
12197;BME280;6161;43.014;25.840;2022-09-09T07:23:20;99672.97;;;31.46;nan
12197;BME280;6161;43.014;25.840;2022-09-09T07:25:46;99692.88;;;31.59;nan
12197;BME280;6161;43.014;25.840;2022-09-09T07:28:13;99680.16;;;31.52;nan
12197;BME280;6161;43.014;25.840;2022-09-09T07:30:39;99670.75;;;31.48;nan
12197;BME280;6161;43.014;25.840;2022-09-09T07:33:05;99689.00;;;31.60;nan
12197;BME280;6161;43.014;25.840;2022-09-09T07:35:31;99684.25;;;31.70;nan
12197;BME280;6161;43.014;25.840;2022-09-09T07:37:57;99675.63;;;31.72;nan
12197;BME280;6161;43.014;25.840;2022-09-09T07:40:24;99685.53;;;31.88;nan
12197;BME280;6161;43.014;25.840;2022-09-09T07:42:49;99681.03;;;31.92;nan
12197;BME280;6161;43.014;25.840;2022-09-09T07:45:15;99671.59;;;32.04;nan
12197;BME280;6161;43.014;25.840;2022-09-09T07:47:41;99665.88;;;32.24;nan
12197;BME280;6161;43.014;25.840;2022-09-09T07:50:09;99657.38;;;32.45;nan
12197;BME280;6161;43.014;25.840;2022-09-09T07:55:00;99669.72;;;32.68;nan
12197;BME280;6161;43.014;25.840;2022-09-09T07:57:28;99666.59;;;32.74;nan
12197;BME280;6161;43.014;25.840;2022-09-09T07:59:55;99699.16;;;32.69;nan
12197;BME280;6161;43.014;25.840;2022-09-09T08:02:22;99685.63;;;32.57;nan
12197;BME280;6161;43.014;25.840;2022-09-09T08:04:48;99656.50;;;32.54;nan
12197;BME280;6161;43.014;25.840;2022-09-09T08:07:14;99659.00;;;32.56;nan
12197;BME280;6161;43.014;25.840;2022-09-09T08:09:41;99653.72;;;32.83;nan
12197;BME280;6161;43.014;25.840;2022-09-09T08:12:07;99653.44;;;32.85;nan
12197;BME280;6161;43.014;25.840;2022-09-09T08:14:34;99672.28;;;32.88;nan
12197;BME280;6161;43.014;25.840;2022-09-09T08:17:00;99672.00;;;32.90;nan
12197;BME280;6161;43.014;25.840;2022-09-09T08:19:26;99662.59;;;32.86;nan
12197;BME280;6161;43.014;25.840;2022-09-09T08:21:53;99657.59;;;32.88;nan
12197;BME280;6161;43.014;25.840;2022-09-09T08:24:19;99656.84;;;32.77;nan
12197;BME280;6161;43.014;25.840;2022-09-09T08:26:47;99652.13;;;32.77;nan
12197;BME280;6161;43.014;25.840;2022-09-09T08:29:15;99649.78;;;32.90;nan
12197;BME280;6161;43.014;25.840;2022-09-09T08:31:46;99631.09;;;32.95;nan
12197;BME280;6161;43.014;25.840;2022-09-09T08:34:12;99630.75;;;33.02;nan
12197;BME280;6161;43.014;25.840;2022-09-09T08:36:41;99628.63;;;33.18;nan
12197;BME280;6161;43.014;25.840;2022-09-09T08:39:08;99627.34;;;33.34;nan
12197;BME280;6161;43.014;25.840;2022-09-09T08:52:53;99620.78;;;33.87;nan
12197;BME280;6161;43.014;25.840;2022-09-09T09:03:22;99616.19;;;33.58;nan
12197;BME280;6161;43.014;25.840;2022-09-09T09:08:36;99626.72;;;33.80;nan
12197;BME280;6161;43.014;25.840;2022-09-09T09:11:06;99620.00;;;33.81;nan
12197;BME280;6161;43.014;25.840;2022-09-09T09:16:13;99625.38;;;33.54;nan
12197;BME280;6161;43.014;25.840;2022-09-09T09:18:43;99611.91;;;33.66;nan
12197;BME280;6161;43.014;25.840;2022-09-09T09:21:16;99623.09;;;33.61;nan
12197;BME280;6161;43.014;25.840;2022-09-09T09:24:04;99615.56;;;33.61;nan
12197;BME280;6161;43.014;25.840;2022-09-09T09:26:34;99598.88;;;33.61;nan
12197;BME280;6161;43.014;25.840;2022-09-09T09:29:10;99610.19;;;33.70;nan
12197;BME280;6161;43.014;25.840;2022-09-09T09:31:37;99620.41;;;33.75;nan
12197;BME280;6161;43.014;25.840;2022-09-09T09:34:02;99601.63;;;33.66;nan
12197;BME280;6161;43.014;25.840;2022-09-09T09:36:55;99616.03;;;33.87;nan
12197;BME280;6161;43.014;25.840;2022-09-09T09:39:32;99590.25;;;33.82;nan
12197;BME280;6161;43.014;25.840;2022-09-09T09:42:13;99608.06;;;34.00;nan
12197;BME280;6161;43.014;25.840;2022-09-09T09:47:16;99627.28;;;33.96;nan
12197;BME280;6161;43.014;25.840;2022-09-09T09:49:55;99605.94;;;34.10;nan
12197;BME280;6161;43.014;25.840;2022-09-09T09:52:29;99611.28;;;34.07;nan
12197;BME280;6161;43.014;25.840;2022-09-09T09:54:56;99601.66;;;34.18;nan
12197;BME280;6161;43.014;25.840;2022-09-09T09:57:25;99601.06;;;34.21;nan
12197;BME280;6161;43.014;25.840;2022-09-09T10:00:15;99588.69;;;34.27;nan
12197;BME280;6161;43.014;25.840;2022-09-09T10:02:43;99607.22;;;34.18;nan
12197;BME280;6161;43.014;25.840;2022-09-09T10:05:14;99594.13;;;34.00;nan
12197;BME280;6161;43.014;25.840;2022-09-09T10:07:40;99589.25;;;33.92;nan
12197;BME280;6161;43.014;25.840;2022-09-09T10:12:43;99603.00;;;34.02;nan
12197;BME280;6161;43.014;25.840;2022-09-09T10:15:38;99578.13;;;34.10;nan
12197;BME280;6161;43.014;25.840;2022-09-09T10:18:15;99594.63;;;34.21;nan
12197;BME280;6161;43.014;25.840;2022-09-09T10:34:05;99596.75;;;33.91;nan
12197;BME280;6161;43.014;25.840;2022-09-09T10:36:34;99588.34;;;33.96;nan
12197;BME280;6161;43.014;25.840;2022-09-09T10:39:16;99599.47;;;33.96;nan
12197;BME280;6161;43.014;25.840;2022-09-09T10:53:00;99581.06;;;33.81;nan
12197;BME280;6161;43.014;25.840;2022-09-09T10:55:35;99583.16;;;33.89;nan
12197;BME280;6161;43.014;25.840;2022-09-09T10:58:05;99599.88;;;33.89;nan
12197;BME280;6161;43.014;25.840;2022-09-09T11:00:50;99573.91;;;33.94;nan
12197;BME280;6161;43.014;25.840;2022-09-09T11:03:22;99602.78;;;33.98;nan
12197;BME280;6161;43.014;25.840;2022-09-09T11:05:54;99601.34;;;34.01;nan
12197;BME280;6161;43.014;25.840;2022-09-09T11:08:25;99614.16;;;34.02;nan
12197;BME280;6161;43.014;25.840;2022-09-09T11:11:13;99575.31;;;34.10;nan
12197;BME280;6161;43.014;25.840;2022-09-09T11:16:33;99583.69;;;34.10;nan
12197;BME280;6161;43.014;25.840;2022-09-09T11:19:26;99577.72;;;34.17;nan
12197;BME280;6161;43.014;25.840;2022-09-09T11:21:55;99558.16;;;34.22;nan
12197;BME280;6161;43.014;25.840;2022-09-09T11:24:59;99571.38;;;34.30;nan
12197;BME280;6161;43.014;25.840;2022-09-09T11:27:40;99570.16;;;34.37;nan
12197;BME280;6161;43.014;25.840;2022-09-09T11:30:18;99560.84;;;34.27;nan
12197;BME280;6161;43.014;25.840;2022-09-09T11:36:22;99572.03;;;34.41;nan
12197;BME280;6161;43.014;25.840;2022-09-09T11:39:02;99567.69;;;34.49;nan
12197;BME280;6161;43.014;25.840;2022-09-09T11:41:35;99564.41;;;34.47;nan
12197;BME280;6161;43.014;25.840;2022-09-09T11:46:38;99546.84;;;34.46;nan
12197;BME280;6161;43.014;25.840;2022-09-09T11:49:06;99553.06;;;34.57;nan
12197;BME280;6161;43.014;25.840;2022-09-09T11:51:33;99551.00;;;34.63;nan
12197;BME280;6161;43.014;25.840;2022-09-09T11:54:02;99543.06;;;34.70;nan
12197;BME280;6161;43.014;25.840;2022-09-09T11:56:47;99547.72;;;34.74;nan
12197;BME280;6161;43.014;25.840;2022-09-09T11:59:29;99536.59;;;34.74;nan
12197;BME280;6161;43.014;25.840;2022-09-09T12:01:58;99520.16;;;34.73;nan
12197;BME280;6161;43.014;25.840;2022-09-09T12:07:04;99529.72;;;34.53;nan
12197;BME280;6161;43.014;25.840;2022-09-09T12:14:56;99523.63;;;34.37;nan
12197;BME280;6161;43.014;25.840;2022-09-09T12:20:53;99504.31;;;34.41;nan
12197;BME280;6161;43.014;25.840;2022-09-09T12:23:38;99491.16;;;34.46;nan
12197;BME280;6161;43.014;25.840;2022-09-09T12:32:00;99498.75;;;34.27;nan
12197;BME280;6161;43.014;25.840;2022-09-09T12:39:55;99494.31;;;34.26;nan
12197;BME280;6161;43.014;25.840;2022-09-09T12:42:22;99485.94;;;34.26;nan
12197;BME280;6161;43.014;25.840;2022-09-09T12:45:17;99477.31;;;34.27;nan
12197;BME280;6161;43.014;25.840;2022-09-09T12:50:23;99471.72;;;34.27;nan
12197;BME280;6161;43.014;25.840;2022-09-09T12:52:55;99468.22;;;34.36;nan
12197;BME280;6161;43.014;25.840;2022-09-09T12:55:35;99484.72;;;34.46;nan
12197;BME280;6161;43.014;25.840;2022-09-09T12:58:02;99476.69;;;34.44;nan
12197;BME280;6161;43.014;25.840;2022-09-09T13:00:31;99467.63;;;34.39;nan
12197;BME280;6161;43.014;25.840;2022-09-09T13:02:59;99464.09;;;34.33;nan
12197;BME280;6161;43.014;25.840;2022-09-09T13:05:28;99455.66;;;34.24;nan
12197;BME280;6161;43.014;25.840;2022-09-09T13:08:08;99444.47;;;34.10;nan
12197;BME280;6161;43.014;25.840;2022-09-09T13:10:43;99454.81;;;34.24;nan
12197;BME280;6161;43.014;25.840;2022-09-09T13:13:15;99449.03;;;34.20;nan
12197;BME280;6161;43.014;25.840;2022-09-09T13:15:53;99464.00;;;34.24;nan
12197;BME280;6161;43.014;25.840;2022-09-09T13:18:22;99460.56;;;34.14;nan
12197;BME280;6161;43.014;25.840;2022-09-09T13:20:49;99466.00;;;34.05;nan
12197;BME280;6161;43.014;25.840;2022-09-09T13:23:18;99457.44;;;34.01;nan
12197;BME280;6161;43.014;25.840;2022-09-09T13:26:02;99446.38;;;33.82;nan
12197;BME280;6161;43.014;25.840;2022-09-09T13:28:30;99468.72;;;33.77;nan
12197;BME280;6161;43.014;25.840;2022-09-09T13:33:46;99461.91;;;33.83;nan
12197;BME280;6161;43.014;25.840;2022-09-09T13:36:12;99463.16;;;33.77;nan
12197;BME280;6161;43.014;25.840;2022-09-09T13:41:36;99464.84;;;33.59;nan
12197;BME280;6161;43.014;25.840;2022-09-09T13:44:19;99456.03;;;33.52;nan
12197;BME280;6161;43.014;25.840;2022-09-09T13:46:45;99457.84;;;33.43;nan
12197;BME280;6161;43.014;25.840;2022-09-09T13:51:38;99470.25;;;33.13;nan
12197;BME280;6161;43.014;25.840;2022-09-09T13:54:05;99469.03;;;33.00;nan
12197;BME280;6161;43.014;25.840;2022-09-09T13:56:35;99450.16;;;32.97;nan
12197;BME280;6161;43.014;25.840;2022-09-09T13:59:01;99455.44;;;32.74;nan
12197;BME280;6161;43.014;25.840;2022-09-09T14:01:27;99451.63;;;32.70;nan
12197;BME280;6161;43.014;25.840;2022-09-09T14:03:53;99467.06;;;32.57;nan
12197;BME280;6161;43.014;25.840;2022-09-09T14:06:19;99456.16;;;32.37;nan
12197;BME280;6161;43.014;25.840;2022-09-09T14:08:48;99436.25;;;32.30;nan
12197;BME280;6161;43.014;25.840;2022-09-09T14:11:14;99453.75;;;32.30;nan
12197;BME280;6161;43.014;25.840;2022-09-09T14:13:40;99424.56;;;32.09;nan
12197;BME280;6161;43.014;25.840;2022-09-09T14:16:05;99444.88;;;32.04;nan
12197;BME280;6161;43.014;25.840;2022-09-09T14:18:31;99430.25;;;31.93;nan
12197;BME280;6161;43.014;25.840;2022-09-09T14:20:57;99433.34;;;31.87;nan
12197;BME280;6161;43.014;25.840;2022-09-09T14:23:23;99431.69;;;31.57;nan
12197;BME280;6161;43.014;25.840;2022-09-09T14:28:15;99435.59;;;31.56;nan
12197;BME280;6161;43.014;25.840;2022-09-09T14:30:41;99425.56;;;31.60;nan
12197;BME280;6161;43.014;25.840;2022-09-09T14:33:10;99429.19;;;31.55;nan
12197;BME280;6161;43.014;25.840;2022-09-09T14:35:36;99467.56;;;31.43;nan
12197;BME280;6161;43.014;25.840;2022-09-09T14:38:02;99448.38;;;31.51;nan
12197;BME280;6161;43.014;25.840;2022-09-09T14:40:28;99442.00;;;31.51;nan
12197;BME280;6161;43.014;25.840;2022-09-09T14:42:53;99403.50;;;31.44;nan
12197;BME280;6161;43.014;25.840;2022-09-09T14:45:19;99426.28;;;31.36;nan
12197;BME280;6161;43.014;25.840;2022-09-09T14:47:46;99428.22;;;31.36;nan
12197;BME280;6161;43.014;25.840;2022-09-09T14:50:12;99440.75;;;31.28;nan
12197;BME280;6161;43.014;25.840;2022-09-09T14:52:38;99447.16;;;31.23;nan
12197;BME280;6161;43.014;25.840;2022-09-09T14:55:04;99424.16;;;31.23;nan
12197;BME280;6161;43.014;25.840;2022-09-09T14:57:31;99483.13;;;31.33;nan
12197;BME280;6161;43.014;25.840;2022-09-09T15:02:22;99438.34;;;31.16;nan
12197;BME280;6161;43.014;25.840;2022-09-09T15:04:47;99454.16;;;31.16;nan
12197;BME280;6161;43.014;25.840;2022-09-09T15:07:15;99443.34;;;31.14;nan
12197;BME280;6161;43.014;25.840;2022-09-09T15:09:41;99434.28;;;31.03;nan
12197;BME280;6161;43.014;25.840;2022-09-09T15:12:07;99430.06;;;31.11;nan
12197;BME280;6161;43.014;25.840;2022-09-09T15:14:32;99459.69;;;31.10;nan
12197;BME280;6161;43.014;25.840;2022-09-09T15:17:01;99453.66;;;31.03;nan
12197;BME280;6161;43.014;25.840;2022-09-09T15:19:26;99440.91;;;31.02;nan
12197;BME280;6161;43.014;25.840;2022-09-09T15:21:52;99450.00;;;31.08;nan
12197;BME280;6161;43.014;25.840;2022-09-09T15:24:17;99451.25;;;30.92;nan
12197;BME280;6161;43.014;25.840;2022-09-09T15:26:43;99450.97;;;30.88;nan
12197;BME280;6161;43.014;25.840;2022-09-09T15:29:08;99461.78;;;30.84;nan
12197;BME280;6161;43.014;25.840;2022-09-09T15:31:34;99441.34;;;30.70;nan
12197;BME280;6161;43.014;25.840;2022-09-09T15:34:02;99450.72;;;30.84;nan
12197;BME280;6161;43.014;25.840;2022-09-09T15:39:02;99440.47;;;30.85;nan
12197;BME280;6161;43.014;25.840;2022-09-09T15:41:29;99459.53;;;30.92;nan
12197;BME280;6161;43.014;25.840;2022-09-09T15:43:56;99480.28;;;30.99;nan
12197;BME280;6161;43.014;25.840;2022-09-09T15:51:18;99509.88;;;31.09;nan
12197;BME280;6161;43.014;25.840;2022-09-09T15:53:44;99509.84;;;31.14;nan
12197;BME280;6161;43.014;25.840;2022-09-09T15:56:10;99502.31;;;31.20;nan
12197;BME280;6161;43.014;25.840;2022-09-09T15:58:36;99497.56;;;31.25;nan
12197;BME280;6161;43.014;25.840;2022-09-09T16:01:10;99503.66;;;31.27;nan
12197;BME280;6161;43.014;25.840;2022-09-09T16:03:41;99567.13;;;31.29;nan
12197;BME280;6161;43.014;25.840;2022-09-09T16:06:08;99515.84;;;31.31;nan
12197;BME280;6161;43.014;25.840;2022-09-09T16:08:34;99517.25;;;31.29;nan
12197;BME280;6161;43.014;25.840;2022-09-09T16:11:08;99498.94;;;31.28;nan
12197;BME280;6161;43.014;25.840;2022-09-09T16:13:36;99468.50;;;31.23;nan
12197;BME280;6161;43.014;25.840;2022-09-09T16:16:03;99508.13;;;31.23;nan
12197;BME280;6161;43.014;25.840;2022-09-09T16:18:37;99394.63;;;30.53;nan
12197;BME280;6161;43.014;25.840;2022-09-09T16:21:04;99482.09;;;31.19;nan
12197;BME280;6161;43.014;25.840;2022-09-09T16:23:31;99498.13;;;31.27;nan
12197;BME280;6161;43.014;25.840;2022-09-09T16:25:57;99493.97;;;31.25;nan
12197;BME280;6161;43.014;25.840;2022-09-09T16:28:22;99491.00;;;31.16;nan
12197;BME280;6161;43.014;25.840;2022-09-09T16:30:48;99497.34;;;31.17;nan
12197;BME280;6161;43.014;25.840;2022-09-09T16:33:15;99486.59;;;31.10;nan
12197;BME280;6161;43.014;25.840;2022-09-09T16:35:41;99517.09;;;31.05;nan
12197;BME280;6161;43.014;25.840;2022-09-09T16:38:06;99507.97;;;30.99;nan
12197;BME280;6161;43.014;25.840;2022-09-09T16:40:38;99518.25;;;30.99;nan
12197;BME280;6161;43.014;25.840;2022-09-09T16:43:04;99526.00;;;30.97;nan
12197;BME280;6161;43.014;25.840;2022-09-09T16:45:31;99517.44;;;30.78;nan
12197;BME280;6161;43.014;25.840;2022-09-09T16:50:26;99517.22;;;30.69;nan
12197;BME280;6161;43.014;25.840;2022-09-09T16:52:52;99533.28;;;30.67;nan
12197;BME280;6161;43.014;25.840;2022-09-09T16:55:18;99508.63;;;30.65;nan
12197;BME280;6161;43.014;25.840;2022-09-09T16:57:46;99533.03;;;30.63;nan
12197;BME280;6161;43.014;25.840;2022-09-09T17:00:14;99531.34;;;30.62;nan
12197;BME280;6161;43.014;25.840;2022-09-09T17:02:40;99541.31;;;30.58;nan
12197;BME280;6161;43.014;25.840;2022-09-09T17:05:06;99528.34;;;30.54;nan
12197;BME280;6161;43.014;25.840;2022-09-09T17:07:31;99538.06;;;30.46;nan
12197;BME280;6161;43.014;25.840;2022-09-09T17:09:57;99541.69;;;30.36;nan
12197;BME280;6161;43.014;25.840;2022-09-09T17:12:23;99534.22;;;30.26;nan